createdAt,value
2017-05-17T00:01:00.987Z,71.71
2017-05-17T00:03:27.967Z,68.18
2017-05-17T00:05:54.306Z,68.59
2017-05-17T00:08:20.651Z,68.49
2017-05-17T00:10:47.021Z,71.59
2017-05-17T00:13:13.356Z,71.75
2017-05-17T00:15:39.690Z,73.56
2017-05-17T00:18:06.042Z,72.82
2017-05-17T00:20:32.388Z,71.90
2017-05-17T00:22:58.749Z,71.70
2017-05-17T00:25:25.082Z,66.06
2017-05-17T00:27:51.435Z,68.80
2017-05-17T00:30:17.757Z,68.97
2017-05-17T00:32:44.115Z,68.02
2017-05-17T00:35:10.496Z,69.18
2017-05-17T00:37:49.181Z,64.88
2017-05-17T00:40:27.544Z,62.53
2017-05-17T00:43:06.092Z,62.51
2017-05-17T00:45:44.374Z,63.60
2017-05-17T00:48:23.023Z,66.90
2017-05-17T00:51:01.366Z,65.46
2017-05-17T00:53:27.705Z,65.79
2017-05-17T00:55:54.081Z,65.42
2017-05-17T00:58:20.428Z,66.09
2017-05-17T01:00:46.765Z,67.21
2017-05-17T01:03:13.087Z,66.75
2017-05-17T01:05:39.453Z,65.67
2017-05-17T01:08:05.789Z,65.39
2017-05-17T01:10:32.142Z,66.38
2017-05-17T01:12:58.508Z,63.97
2017-05-17T01:15:24.859Z,63.26
2017-05-17T01:17:51.213Z,63.69
2017-05-17T01:20:17.582Z,63.98
2017-05-17T01:22:43.935Z,62.05
2017-05-17T01:25:10.272Z,59.92
2017-05-17T01:27:36.614Z,60.80
2017-05-17T01:30:03.019Z,59.72
2017-05-17T01:32:29.514Z,58.58
2017-05-17T01:34:55.893Z,57.50
2017-05-17T01:37:22.282Z,57.79
2017-05-17T01:39:48.655Z,55.30
2017-05-17T01:42:15.048Z,55.43
2017-05-17T01:44:41.444Z,53.57
2017-05-17T01:47:08.094Z,56.53
2017-05-17T01:49:34.454Z,56.89
2017-05-17T01:52:00.789Z,55.66
2017-05-17T01:54:27.137Z,55.64
2017-05-17T01:56:53.482Z,52.53
2017-05-17T01:59:19.848Z,54.92
2017-05-17T02:01:46.212Z,55.89
2017-05-17T02:04:12.588Z,54.26
2017-05-17T02:06:38.937Z,53.03
2017-05-17T02:09:05.298Z,52.26
2017-05-17T02:11:31.654Z,52.43
2017-05-17T02:13:58.022Z,52.45
2017-05-17T02:16:24.372Z,53.69
2017-05-17T02:18:50.696Z,53.84
2017-05-17T02:21:17.064Z,54.98
2017-05-17T02:23:43.433Z,55.58
2017-05-17T02:26:09.801Z,53.68
2017-05-17T02:28:36.199Z,54.83
2017-05-17T02:31:02.559Z,58.45
2017-05-17T02:33:28.905Z,55.31
2017-05-17T02:35:55.263Z,57.76
2017-05-17T02:38:21.627Z,57.08
2017-05-17T02:40:47.978Z,56.35
2017-05-17T02:43:14.331Z,56.84
2017-05-17T02:45:40.684Z,58.21
2017-05-17T02:48:07.033Z,57.91
2017-05-17T02:50:33.382Z,56.61
2017-05-17T02:52:59.748Z,59.31
2017-05-17T02:55:26.133Z,58.97
2017-05-17T02:57:52.530Z,59.03
2017-05-17T03:00:18.897Z,57.02
2017-05-17T03:02:45.272Z,59.83
2017-05-17T03:05:11.631Z,58.16
2017-05-17T03:07:37.969Z,59.81
2017-05-17T03:10:04.313Z,58.61
2017-05-17T03:12:30.644Z,58.56
2017-05-17T03:14:57.023Z,59.41
2017-05-17T03:17:23.401Z,58.56
2017-05-17T03:19:49.759Z,60.95
2017-05-17T03:22:16.078Z,58.55
2017-05-17T03:24:42.439Z,59.49
2017-05-17T03:27:08.814Z,60.01
2017-05-17T03:29:35.153Z,59.60
2017-05-17T03:32:01.530Z,60.56
2017-05-17T03:34:27.920Z,59.91
2017-05-17T03:36:54.264Z,59.79
2017-05-17T03:39:20.608Z,60.09
2017-05-17T03:41:46.953Z,58.33
2017-05-17T03:44:13.303Z,58.22
2017-05-17T03:46:39.657Z,58.14
2017-05-17T03:49:05.995Z,59.68
2017-05-17T03:51:32.331Z,59.91
2017-05-17T03:53:58.680Z,60.14
2017-05-17T03:56:25.036Z,62.03
2017-05-17T03:58:51.383Z,61.65
2017-05-17T04:01:17.744Z,60.61
2017-05-17T04:03:44.099Z,59.92
2017-05-17T04:06:10.457Z,61.31
2017-05-17T04:08:36.814Z,58.78
2017-05-17T04:11:03.169Z,59.33
2017-05-17T04:13:29.523Z,58.83
2017-05-17T04:15:55.893Z,59.17
2017-05-17T04:18:22.249Z,58.04
2017-05-17T04:20:48.593Z,57.60
2017-05-17T04:23:14.944Z,60.43
2017-05-17T04:25:41.328Z,58.56
2017-05-17T04:28:07.652Z,57.82
2017-05-17T04:30:34.012Z,62.19
2017-05-17T04:33:00.375Z,63.46
2017-05-17T04:35:26.710Z,62.73
2017-05-17T04:37:53.039Z,61.55
2017-05-17T04:40:19.359Z,62.72
2017-05-17T04:42:45.715Z,62.16
2017-05-17T04:45:12.085Z,62.93
2017-05-17T04:47:38.421Z,61.13
2017-05-17T04:50:04.777Z,62.72
2017-05-17T04:52:31.165Z,60.48
2017-05-17T04:54:57.559Z,62.56
2017-05-17T04:57:23.914Z,61.08
2017-05-17T04:59:50.309Z,61.04
2017-05-17T05:02:16.702Z,61.43
2017-05-17T05:04:43.045Z,61.73
2017-05-17T05:07:09.405Z,59.75
2017-05-17T05:09:35.785Z,60.10
2017-05-17T05:12:02.126Z,63.36
2017-05-17T05:14:28.513Z,62.21
2017-05-17T05:16:54.870Z,63.98
2017-05-17T05:19:21.223Z,62.21
2017-05-17T05:21:47.637Z,64.74
2017-05-17T05:24:14.009Z,61.90
2017-05-17T05:26:40.376Z,63.44
2017-05-17T05:29:06.748Z,64.03
2017-05-17T05:31:33.129Z,62.29
2017-05-17T05:34:00.019Z,60.72
2017-05-17T05:36:26.440Z,62.06
2017-05-17T05:38:52.813Z,60.78
2017-05-17T05:41:19.184Z,63.92
2017-05-17T05:43:45.558Z,61.77
2017-05-17T05:46:11.975Z,59.54
2017-05-17T05:48:38.336Z,61.84
2017-05-17T05:51:04.697Z,61.76
2017-05-17T05:53:31.090Z,60.01
2017-05-17T05:55:57.476Z,56.67
2017-05-17T05:58:23.829Z,58.51
2017-05-17T06:00:50.180Z,59.02
2017-05-17T06:03:16.491Z,58.96
2017-05-17T06:05:42.879Z,56.82
2017-05-17T06:08:09.235Z,56.77
2017-05-17T06:10:35.575Z,55.90
2017-05-17T06:13:01.928Z,56.44
2017-05-17T06:15:28.263Z,56.15
2017-05-17T06:17:54.681Z,54.34
2017-05-17T06:20:21.024Z,53.06
2017-05-17T06:22:47.413Z,53.88
2017-05-17T06:25:13.742Z,54.04
2017-05-17T06:27:40.082Z,53.25
2017-05-17T06:30:06.435Z,53.75
2017-05-17T06:32:32.815Z,54.03
2017-05-17T06:34:59.182Z,53.59
2017-05-17T06:37:25.546Z,56.05
2017-05-17T06:39:51.873Z,54.00
2017-05-17T06:42:18.222Z,53.00
2017-05-17T06:44:44.574Z,51.48
2017-05-17T06:47:10.935Z,51.72
2017-05-17T06:49:37.288Z,49.74
2017-05-17T06:52:03.602Z,49.81
2017-05-17T06:54:29.960Z,49.57
2017-05-17T06:56:56.296Z,50.91
2017-05-17T06:59:22.624Z,48.81
2017-05-17T07:01:48.992Z,48.83
2017-05-17T07:04:15.344Z,48.05
2017-05-17T07:06:41.696Z,46.96
2017-05-17T07:09:08.041Z,46.29
2017-05-17T07:11:34.460Z,46.84
2017-05-17T07:14:00.791Z,46.06
2017-05-17T07:16:27.157Z,45.69
2017-05-17T07:18:53.541Z,45.71
2017-05-17T07:21:19.962Z,46.20
2017-05-17T07:23:46.288Z,45.81
2017-05-17T07:26:12.664Z,45.16
2017-05-17T07:28:39.008Z,45.30
2017-05-17T07:31:05.371Z,43.65
2017-05-17T07:33:31.719Z,44.42
2017-05-17T07:35:58.094Z,42.11
2017-05-17T07:38:24.480Z,42.63
2017-05-17T07:40:50.825Z,40.58
2017-05-17T07:43:17.130Z,40.68
2017-05-17T07:45:43.465Z,41.09
2017-05-17T07:48:09.820Z,40.24
2017-05-17T07:50:36.158Z,40.57
2017-05-17T07:53:02.518Z,41.12
2017-05-17T07:55:28.839Z,39.98
2017-05-17T07:57:55.209Z,40.56
2017-05-17T08:00:21.588Z,40.17
2017-05-17T08:02:47.914Z,40.79
2017-05-17T08:05:14.246Z,39.01
2017-05-17T08:07:40.594Z,38.91
2017-05-17T08:10:06.930Z,38.56
2017-05-17T08:12:33.286Z,38.50
2017-05-17T08:14:59.610Z,38.93
2017-05-17T08:17:26.025Z,38.73
2017-05-17T08:19:52.380Z,37.17
2017-05-17T08:22:18.738Z,37.31
2017-05-17T08:24:45.087Z,36.18
2017-05-17T08:27:11.419Z,35.85
2017-05-17T08:29:37.774Z,34.33
2017-05-17T08:32:04.122Z,36.38
2017-05-17T08:34:30.479Z,35.67
2017-05-17T08:36:56.888Z,34.66
2017-05-17T08:39:23.230Z,36.35
2017-05-17T08:41:49.570Z,36.44
2017-05-17T08:44:15.882Z,34.90
2017-05-17T08:46:42.249Z,34.72
2017-05-17T08:49:08.619Z,36.29
2017-05-17T08:51:35.005Z,35.68
2017-05-17T08:54:01.339Z,34.69
2017-05-17T08:56:27.704Z,35.10
2017-05-17T08:58:54.049Z,34.63
2017-05-17T09:01:20.390Z,35.12
2017-05-17T09:03:46.735Z,33.92
2017-05-17T09:06:13.094Z,33.30
2017-05-17T09:08:39.459Z,34.13
2017-05-17T09:11:05.794Z,34.32
2017-05-17T09:13:32.125Z,33.72
2017-05-17T09:15:58.517Z,33.23
2017-05-17T09:18:24.861Z,33.63
2017-05-17T09:20:51.226Z,33.10
2017-05-17T09:23:17.621Z,33.48
2017-05-17T09:25:43.982Z,32.74
2017-05-17T09:28:10.326Z,33.26
2017-05-17T09:30:36.658Z,32.50
2017-05-17T09:33:03.023Z,32.88
2017-05-17T09:35:29.370Z,34.74
2017-05-17T09:37:55.725Z,33.20
2017-05-17T09:40:22.074Z,32.58
2017-05-17T09:42:48.429Z,31.47
2017-05-17T09:45:14.753Z,31.33
2017-05-17T09:47:41.104Z,31.35
2017-05-17T09:50:07.445Z,32.53
2017-05-17T09:52:33.830Z,31.80
2017-05-17T09:55:00.153Z,31.05
2017-05-17T09:57:26.487Z,32.19
2017-05-17T09:59:52.824Z,30.28
2017-05-17T10:02:19.191Z,29.47
2017-05-17T10:04:45.515Z,30.67
2017-05-17T10:07:11.857Z,31.52
2017-05-17T10:09:38.210Z,30.60
2017-05-17T10:12:04.553Z,29.59
2017-05-17T10:14:30.877Z,29.59
2017-05-17T10:16:57.212Z,29.51
2017-05-17T10:19:23.550Z,29.53
2017-05-17T10:21:49.880Z,31.85
2017-05-17T10:24:16.218Z,29.96
2017-05-17T10:26:42.562Z,28.88
2017-05-17T10:29:08.911Z,29.51
2017-05-17T10:31:35.254Z,29.93
2017-05-17T10:34:01.588Z,29.36
2017-05-17T10:36:27.913Z,29.18
2017-05-17T10:38:54.222Z,28.84
2017-05-17T10:41:20.574Z,31.52
2017-05-17T10:43:46.906Z,30.54
2017-05-17T10:46:13.284Z,29.73
2017-05-17T10:48:39.616Z,29.69
2017-05-17T10:51:05.979Z,28.36
2017-05-17T10:53:32.320Z,28.51
2017-05-17T10:55:58.664Z,28.40
2017-05-17T10:58:25.041Z,28.41
2017-05-17T11:00:51.359Z,28.87
2017-05-17T11:03:17.693Z,27.44
2017-05-17T11:05:44.027Z,27.77
2017-05-17T11:08:10.374Z,28.11
2017-05-17T11:10:36.734Z,28.11
2017-05-17T11:13:03.085Z,29.96
2017-05-17T11:15:29.457Z,28.54
2017-05-17T11:17:55.820Z,27.44
2017-05-17T11:20:22.167Z,29.12
2017-05-17T11:22:48.509Z,28.65
2017-05-17T11:25:14.861Z,27.29
2017-05-17T11:27:41.211Z,27.91
2017-05-17T11:30:07.564Z,27.24
2017-05-17T11:32:33.893Z,27.07
2017-05-17T11:35:00.239Z,28.64
2017-05-17T11:37:26.602Z,28.07
2017-05-17T11:39:52.956Z,28.09
2017-05-17T11:42:19.294Z,28.30
2017-05-17T11:44:45.665Z,28.41
2017-05-17T11:47:12.054Z,28.15
2017-05-17T11:49:38.421Z,26.97
2017-05-17T11:52:04.769Z,29.16
2017-05-17T11:54:31.447Z,27.73
2017-05-17T11:56:57.768Z,26.52
2017-05-17T11:59:24.118Z,26.43
2017-05-17T12:01:50.479Z,26.52
2017-05-17T12:04:16.841Z,27.76
2017-05-17T12:06:43.183Z,28.12
2017-05-17T12:09:09.525Z,27.15
2017-05-17T12:11:35.866Z,26.25
2017-05-17T12:14:02.238Z,26.51
2017-05-17T12:16:28.591Z,29.94
2017-05-17T12:18:54.949Z,30.56
2017-05-17T12:21:21.307Z,28.35
2017-05-17T12:23:47.703Z,27.11
2017-05-17T12:26:14.065Z,26.83
2017-05-17T12:28:40.395Z,28.33
2017-05-17T12:31:06.843Z,25.91
2017-05-17T12:33:33.221Z,26.30
2017-05-17T12:35:59.573Z,27.75
2017-05-17T12:38:25.943Z,26.84
2017-05-17T12:40:52.312Z,27.29
2017-05-17T12:43:18.634Z,26.67
2017-05-17T12:45:45.003Z,27.66
2017-05-17T12:48:11.348Z,26.66
2017-05-17T12:50:42.079Z,25.99
2017-05-17T12:53:08.541Z,27.22
2017-05-17T12:55:34.851Z,25.17
2017-05-17T12:58:01.190Z,26.28
2017-05-17T13:00:27.530Z,24.87
2017-05-17T13:02:53.882Z,26.24
2017-05-17T13:05:20.240Z,26.57
2017-05-17T13:07:46.610Z,25.79
2017-05-17T13:10:13.044Z,26.21
2017-05-17T13:12:39.415Z,26.54
2017-05-17T13:15:05.757Z,26.05
2017-05-17T13:17:32.128Z,25.45
2017-05-17T13:19:58.474Z,24.58
2017-05-17T13:22:24.806Z,26.16
2017-05-17T13:24:51.138Z,26.52
2017-05-17T13:27:17.501Z,25.86
2017-05-17T13:29:43.915Z,25.62
2017-05-17T13:32:10.294Z,25.41
2017-05-17T13:34:36.635Z,25.69
2017-05-17T13:37:02.970Z,25.69
2017-05-17T13:39:29.321Z,26.59
2017-05-17T13:41:55.658Z,25.52
2017-05-17T13:44:22.008Z,26.09
2017-05-17T13:46:49.101Z,24.83
2017-05-17T13:49:15.710Z,26.15
2017-05-17T13:51:42.128Z,25.76
2017-05-17T13:54:08.477Z,30.29
2017-05-17T13:56:34.832Z,25.51
2017-05-17T13:59:01.226Z,26.51
2017-05-17T14:01:27.608Z,26.57
2017-05-17T14:03:53.958Z,27.11
2017-05-17T14:06:20.291Z,26.37
2017-05-17T14:08:46.781Z,26.60
2017-05-17T14:11:13.217Z,26.28
2017-05-17T14:13:39.808Z,27.19
2017-05-17T14:16:06.163Z,27.82
2017-05-17T14:18:32.507Z,27.44
2017-05-17T14:20:58.854Z,27.99
2017-05-17T14:23:25.838Z,26.66
2017-05-17T14:25:52.178Z,27.16
2017-05-17T14:28:18.520Z,25.27
2017-05-17T14:30:44.931Z,26.31
2017-05-17T14:33:11.270Z,26.70
2017-05-17T14:35:37.630Z,26.51
2017-05-17T14:38:03.960Z,26.96
2017-05-17T14:40:30.297Z,27.24
2017-05-17T14:42:56.678Z,29.09
2017-05-17T14:45:23.011Z,25.81
2017-05-17T14:47:49.397Z,26.63
2017-05-17T14:50:15.764Z,26.33
2017-05-17T14:52:42.191Z,26.74
2017-05-17T14:55:09.432Z,26.41
2017-05-17T14:57:35.813Z,27.00
2017-05-17T15:00:02.173Z,27.35
2017-05-17T15:02:28.508Z,28.56
2017-05-17T15:04:54.848Z,26.77
2017-05-17T15:07:21.208Z,27.46
2017-05-17T15:09:47.522Z,25.29
2017-05-17T15:12:13.889Z,25.85
2017-05-17T15:14:40.217Z,26.49
2017-05-17T15:17:06.530Z,25.53
2017-05-17T15:19:32.887Z,27.00
2017-05-17T15:21:59.278Z,26.64
2017-05-17T15:24:25.635Z,26.21
2017-05-17T15:26:51.999Z,27.50
2017-05-17T15:29:18.344Z,25.98
2017-05-17T15:31:44.697Z,27.63
2017-05-17T15:34:11.054Z,25.76
2017-05-17T15:36:37.435Z,25.23
2017-05-17T15:39:04.232Z,25.85
2017-05-17T15:41:30.589Z,27.06
2017-05-17T15:43:56.924Z,26.48
2017-05-17T15:46:23.270Z,27.18
2017-05-17T15:48:49.610Z,26.82
2017-05-17T15:51:15.935Z,24.86
2017-05-17T15:53:42.471Z,25.18
2017-05-17T15:56:08.808Z,25.01
2017-05-17T15:58:35.161Z,25.60
2017-05-17T16:01:01.524Z,25.59
2017-05-17T16:03:27.903Z,24.81
2017-05-17T16:05:54.309Z,25.21
2017-05-17T16:10:42.080Z,25.70
2017-05-17T16:13:08.441Z,25.94
2017-05-17T16:15:34.779Z,26.20
2017-05-17T16:18:01.118Z,26.65
2017-05-17T16:20:27.520Z,26.82
2017-05-17T16:22:53.865Z,27.19
2017-05-17T16:25:20.240Z,27.24
2017-05-17T16:27:46.598Z,26.87
2017-05-17T16:30:13.012Z,26.81
2017-05-17T16:32:39.389Z,27.67
2017-05-17T16:35:05.760Z,27.58
2017-05-17T16:37:32.172Z,27.32
2017-05-17T16:39:58.500Z,27.07
2017-05-17T16:42:24.824Z,28.19
2017-05-17T16:44:51.182Z,26.96
2017-05-17T16:47:17.512Z,26.81
2017-05-17T16:49:43.859Z,28.29
2017-05-17T16:52:10.555Z,26.71
2017-05-17T16:54:36.899Z,27.53
2017-05-17T16:57:03.243Z,27.39
2017-05-17T16:59:29.582Z,27.65
2017-05-17T17:01:55.921Z,27.45
2017-05-17T17:04:22.294Z,27.13
2017-05-17T17:06:48.642Z,27.75
2017-05-17T17:09:14.992Z,27.82
2017-05-17T17:11:41.306Z,27.88
2017-05-17T17:14:07.682Z,28.58
2017-05-17T17:16:34.096Z,27.78
2017-05-17T17:19:00.419Z,27.90
2017-05-17T17:21:26.765Z,28.33
2017-05-17T17:23:53.121Z,28.18
2017-05-17T17:26:19.473Z,28.38
2017-05-17T17:28:45.811Z,28.81
2017-05-17T17:31:12.182Z,29.82
2017-05-17T17:33:38.504Z,29.37
2017-05-17T17:36:04.881Z,29.11
2017-05-17T17:38:31.207Z,29.66
2017-05-17T17:40:57.562Z,29.42
2017-05-17T17:43:23.913Z,29.97
2017-05-17T17:45:50.233Z,30.10
2017-05-17T17:48:16.573Z,29.98
2017-05-17T17:50:42.899Z,29.97
2017-05-17T17:53:09.236Z,30.21
2017-05-17T17:55:35.564Z,30.72
2017-05-17T17:58:01.917Z,30.51
2017-05-17T18:00:28.270Z,30.52
2017-05-17T18:02:54.642Z,31.20
2017-05-17T18:05:20.998Z,30.41
2017-05-17T18:07:47.330Z,31.19
2017-05-17T18:10:13.673Z,31.06
2017-05-17T18:12:40.006Z,31.28
2017-05-17T18:15:06.330Z,30.59
2017-05-17T18:17:32.701Z,31.17
2017-05-17T18:19:59.046Z,31.77
2017-05-17T18:22:25.387Z,32.42
2017-05-17T18:24:51.740Z,31.52
2017-05-17T18:27:18.083Z,31.79
2017-05-17T18:29:51.242Z,31.98
2017-05-17T18:32:17.593Z,32.02
2017-05-17T18:34:43.939Z,32.02
2017-05-17T18:37:10.270Z,33.23
2017-05-17T18:39:36.609Z,32.11
2017-05-17T18:42:02.937Z,33.04
2017-05-17T18:44:29.260Z,32.53
2017-05-17T18:46:55.603Z,33.13
2017-05-17T18:49:21.947Z,33.33
2017-05-17T18:51:48.299Z,34.04
2017-05-17T18:54:14.633Z,34.68
2017-05-17T18:56:40.996Z,34.00
2017-05-17T18:59:07.377Z,34.82
2017-05-17T19:01:33.739Z,34.00
2017-05-17T19:04:00.071Z,34.58
2017-05-17T19:06:26.417Z,34.15
2017-05-17T19:08:52.782Z,34.35
2017-05-17T19:11:19.123Z,36.56
2017-05-17T19:13:45.470Z,35.43
2017-05-17T19:16:11.857Z,35.41
2017-05-17T19:18:38.194Z,35.29
2017-05-17T19:21:04.554Z,34.62
2017-05-17T19:23:30.916Z,35.28
2017-05-17T19:25:57.292Z,35.51
2017-05-17T19:28:23.623Z,35.85
2017-05-17T19:30:50.129Z,36.16
2017-05-17T19:33:16.510Z,36.20
2017-05-17T19:35:43.258Z,36.39
2017-05-17T19:38:10.261Z,38.14
2017-05-17T19:40:36.638Z,36.98
2017-05-17T19:43:03.025Z,36.80
2017-05-17T19:45:29.472Z,37.47
2017-05-17T19:47:55.903Z,37.57
2017-05-17T19:50:22.235Z,38.15
2017-05-17T19:52:48.581Z,39.83
2017-05-17T19:55:14.940Z,38.60
2017-05-17T19:57:41.278Z,38.53
2017-05-17T20:00:07.649Z,39.49
2017-05-17T20:02:33.986Z,38.77
2017-05-17T20:05:00.348Z,39.10
2017-05-17T20:07:26.708Z,39.45
2017-05-17T20:09:53.062Z,39.75
2017-05-17T20:12:19.429Z,39.28
2017-05-17T20:14:45.775Z,39.65
2017-05-17T20:17:12.090Z,40.76
2017-05-17T20:19:38.568Z,40.21
2017-05-17T20:22:04.890Z,40.46
2017-05-17T20:24:31.235Z,39.73
2017-05-17T20:26:57.628Z,39.46
2017-05-17T20:29:24.057Z,39.54
2017-05-17T20:31:50.447Z,39.94
2017-05-17T20:34:17.288Z,40.41
2017-05-17T20:36:43.710Z,40.04
2017-05-17T20:39:10.055Z,39.56
2017-05-17T20:41:36.433Z,39.53
2017-05-17T20:44:02.774Z,40.21
2017-05-17T20:46:29.171Z,40.67
2017-05-17T20:48:55.515Z,40.16
2017-05-17T20:51:21.842Z,40.74
2017-05-17T20:53:48.188Z,40.34
2017-05-17T20:56:14.525Z,40.10
2017-05-17T20:58:40.903Z,40.34
2017-05-17T21:01:07.245Z,40.29
2017-05-17T21:03:33.604Z,40.23
2017-05-17T21:05:59.956Z,41.44
2017-05-17T21:08:26.297Z,40.26
2017-05-17T21:10:52.646Z,40.38
2017-05-17T21:13:19.054Z,40.60
2017-05-17T21:15:45.446Z,40.58
2017-05-17T21:18:11.799Z,40.35
2017-05-17T21:20:38.136Z,40.11
2017-05-17T21:23:04.579Z,40.08
2017-05-17T21:25:32.184Z,40.95
2017-05-17T21:27:58.569Z,41.15
2017-05-17T21:30:24.918Z,40.95
2017-05-17T21:32:51.263Z,40.89
2017-05-17T21:35:17.636Z,41.69
2017-05-17T21:37:43.982Z,40.89
2017-05-17T21:40:10.341Z,40.65
2017-05-17T21:42:36.710Z,41.50
2017-05-17T21:45:03.030Z,40.91
2017-05-17T21:47:29.363Z,41.61
2017-05-17T21:49:55.737Z,40.89
2017-05-17T21:52:22.080Z,40.76
2017-05-17T21:54:48.432Z,40.94
2017-05-17T21:57:14.824Z,40.91
2017-05-17T21:59:41.142Z,41.17
2017-05-17T22:02:07.478Z,40.54
2017-05-17T22:04:33.841Z,41.02
2017-05-17T22:07:00.889Z,41.01
2017-05-17T22:09:27.436Z,40.89
2017-05-17T22:11:53.767Z,41.34
2017-05-17T22:14:20.105Z,41.07
2017-05-17T22:16:46.441Z,41.19
2017-05-17T22:19:12.783Z,41.33
2017-05-17T22:21:39.130Z,42.65
2017-05-17T22:24:05.436Z,41.56
2017-05-17T22:26:31.773Z,41.44
2017-05-17T22:28:58.098Z,41.60
2017-05-17T22:31:24.515Z,42.19
2017-05-17T22:33:50.872Z,42.25
2017-05-17T22:36:17.212Z,41.94
2017-05-17T22:38:43.552Z,42.06
2017-05-17T22:41:09.952Z,41.82
2017-05-17T22:43:36.297Z,42.29
2017-05-17T22:46:02.703Z,42.54
2017-05-17T22:48:29.078Z,43.19
2017-05-17T22:50:55.433Z,41.80
2017-05-17T22:53:21.770Z,42.48
2017-05-17T22:55:48.175Z,42.48
2017-05-17T22:58:14.561Z,42.11
2017-05-17T23:00:40.917Z,41.98
2017-05-17T23:03:07.270Z,42.10
2017-05-17T23:05:33.619Z,42.25
2017-05-17T23:08:00.582Z,42.65
2017-05-17T23:10:27.025Z,42.03
2017-05-17T23:12:53.383Z,42.71
2017-05-17T23:15:19.907Z,42.84
2017-05-17T23:17:46.301Z,42.64
2017-05-17T23:20:12.652Z,42.71
2017-05-17T23:22:39.045Z,42.72
2017-05-17T23:25:05.399Z,43.46
2017-05-17T23:27:32.161Z,42.60
2017-05-17T23:29:59.169Z,43.42
2017-05-17T23:32:25.860Z,43.50
2017-05-17T23:34:52.224Z,43.42
2017-05-17T23:37:18.587Z,43.60
2017-05-17T23:39:44.969Z,43.29
2017-05-17T23:42:11.626Z,43.08
2017-05-17T23:44:38.521Z,43.10
2017-05-17T23:47:05.278Z,43.95
2017-05-17T23:49:31.783Z,43.34
2017-05-17T23:51:58.301Z,43.85
2017-05-17T23:54:24.762Z,43.51
2017-05-17T23:56:51.146Z,44.45
2017-05-17T23:59:17.626Z,44.88
